Time;durP1;ratioP1;P1;durP2;ratioP2;P2;SDS_P1;SDS_P2;PMS_P1;PMS_P2;Temp;Humidity;BMP_temperature;BMP_pressure;BME280_temperature;BME280_humidity;BME280_pressure;Samples;Min_cycle;Max_cycle;Signal;HPM_P1;HPM_P2
2023/11/24 00:01:50;;;;;;;17.70;7.47;;;5.70;86.10;;;;;;5077092;28;20175;-90
2023/11/24 00:04:16;;;;;;;13.20;5.77;;;5.70;87.30;;;;;;5076976;28;20174;-89
2023/11/24 00:06:41;;;;;;;;;;;5.70;87.60;;;;;;5077356;28;20213;-90
2023/11/24 00:09:07;;;;;;;14.90;6.03;;;5.70;87.90;;;;;;5077037;28;19908;-89
2023/11/24 00:11:36;;;;;;;18.57;6.50;;;5.60;87.80;;;;;;5094985;28;20163;-89
2023/11/24 00:14:02;;;;;;;10.63;6.57;;;5.50;87.70;;;;;;5094868;28;20181;-89
2023/11/24 00:16:28;;;;;;;12.90;6.15;;;5.50;87.80;;;;;;5077128;28;20271;-89
2023/11/24 00:18:54;;;;;;;;;;;5.50;87.90;;;;;;5095268;28;19904;-90
2023/11/24 00:21:19;;;;;;;;;;;5.40;87.70;;;;;;5077289;28;20070;-91
2023/11/24 00:23:45;;;;;;;6.70;5.45;;;5.30;87.90;;;;;;5076724;28;20113;-90
2023/11/24 00:26:10;;;;;;;8.43;6.63;;;5.30;87.90;;;;;;5094761;28;19904;-89
2023/11/24 00:28:36;;;;;;;10.15;6.45;;;5.30;87.90;;;;;;5076421;28;20210;-89
2023/11/24 00:31:05;;;;;;;;;;;5.30;88.00;;;;;;5077241;28;20178;-90
2023/11/24 00:33:31;;;;;;;15.40;6.07;;;5.30;88.20;;;;;;5077067;28;20156;-90
2023/11/24 00:35:57;;;;;;;9.00;5.33;;;5.40;88.30;;;;;;5076606;28;20174;-89
2023/11/24 00:38:22;;;;;;;15.53;6.73;;;5.40;88.50;;;;;;5076310;28;20658;-89
2023/11/24 00:40:49;;;;;;;17.00;14.75;;;5.50;88.40;;;;;;5094478;28;20182;-88
2023/11/24 00:43:15;;;;;;;17.60;15.20;;;5.70;88.30;;;;;;5094471;28;20590;-89
2023/11/24 00:45:41;;;;;;;16.77;14.00;;;5.80;88.10;;;;;;5076292;28;20138;-89
2023/11/24 00:48:06;;;;;;;;;;;5.90;88.00;;;;;;5076150;28;20551;-89
2023/11/24 00:50:33;;;;;;;;;;;5.90;87.70;;;;;;5093701;28;20007;-89
2023/11/24 00:53:01;;;;;;;18.77;14.60;;;5.90;87.50;;;;;;5076299;28;19963;-89
2023/11/24 00:55:30;;;;;;;14.50;13.30;;;6.00;87.10;;;;;;5075709;28;25165;-89
2023/11/24 00:57:56;;;;;;;18.80;16.27;;;6.00;86.80;;;;;;5076119;28;20187;-89
2023/11/24 01:00:25;;;;;;;18.93;17.00;;;6.20;85.20;;;;;;5075877;28;20209;-89
2023/11/24 01:02:50;;;;;;;30.97;18.10;;;6.10;85.20;;;;;;5093973;28;20185;-89
2023/11/24 01:05:18;;;;;;;30.97;19.20;;;6.20;85.30;;;;;;5075821;28;20587;-89
2023/11/24 01:07:46;;;;;;;20.97;16.33;;;6.30;85.40;;;;;;5093768;28;20213;-91
2023/11/24 01:10:12;;;;;;;22.10;15.43;;;6.20;86.50;;;;;;5075758;28;20202;-90
2023/11/24 01:12:38;;;;;;;19.00;16.10;;;6.10;87.00;;;;;;5075896;28;20239;-90
2023/11/24 01:15:06;;;;;;;22.47;15.67;;;5.90;87.30;;;;;;5075980;28;20672;-89
2023/11/24 01:17:31;;;;;;;13.47;5.73;;;5.80;87.80;;;;;;5075541;28;20206;-89
2023/11/24 01:19:57;;;;;;;10.80;5.67;;;5.70;87.80;;;;;;5093653;28;20544;-90
2023/11/24 01:22:24;;;;;;;13.80;12.60;;;5.70;88.20;;;;;;5093481;28;20171;-89
2023/11/24 01:24:51;;;;;;;16.83;15.27;;;5.60;88.10;;;;;;5075697;28;20261;-89
2023/11/24 01:27:17;;;;;;;17.30;16.10;;;5.50;88.10;;;;;;5075469;28;20221;-89
2023/11/24 01:29:42;;;;;;;7.73;5.70;;;5.40;87.90;;;;;;5093313;28;20673;-89
2023/11/24 01:32:08;;;;;;;10.47;5.50;;;5.30;88.00;;;;;;5075429;28;20167;-89
2023/11/24 01:34:33;;;;;;;19.43;17.27;;;5.30;87.90;;;;;;5075331;28;20189;-89
2023/11/24 01:36:59;;;;;;;18.05;16.25;;;5.30;87.80;;;;;;5093315;28;20187;-90
2023/11/24 01:39:26;;;;;;;18.50;16.90;;;5.30;87.90;;;;;;5075452;28;20222;-90
2023/11/24 01:41:51;;;;;;;10.37;5.60;;;5.30;87.90;;;;;;5075977;28;20182;-89
2023/11/24 01:44:18;;;;;;;6.10;5.33;;;5.30;88.10;;;;;;5075162;28;20683;-88
2023/11/24 01:46:44;;;;;;;8.43;5.50;;;5.30;88.30;;;;;;5075076;28;20281;-89
2023/11/24 01:49:10;;;;;;;8.23;5.40;;;5.30;88.30;;;;;;5075123;28;20647;-90
2023/11/24 01:51:36;;;;;;;6.23;5.57;;;5.30;88.40;;;;;;5075171;28;20178;-89
2023/11/24 01:54:03;;;;;;;6.70;4.83;;;5.30;88.50;;;;;;5093394;28;20179;-89
2023/11/24 01:56:30;;;;;;;8.63;5.33;;;5.40;88.60;;;;;;5093390;28;20167;-89
2023/11/24 01:58:57;;;;;;;8.33;5.10;;;5.40;88.50;;;;;;5075073;28;20178;-90
2023/11/24 02:01:28;;;;;;;13.77;5.20;;;5.40;88.60;;;;;;5074832;28;20175;-90
2023/11/24 02:03:55;;;;;;;7.67;5.40;;;5.40;88.70;;;;;;5093154;28;20524;-90
2023/11/24 02:06:20;;;;;;;9.37;5.10;;;5.40;88.70;;;;;;5075017;28;20171;-89
2023/11/24 02:08:47;;;;;;;7.93;4.83;;;5.50;88.80;;;;;;5074857;28;20189;-90
2023/11/24 02:11:13;;;;;;;12.37;4.70;;;5.40;88.80;;;;;;5074954;28;20175;-89
2023/11/24 02:13:38;;;;;;;7.17;4.87;;;5.40;88.80;;;;;;5075024;28;20263;-89
2023/11/24 02:16:04;;;;;;;9.77;5.20;;;5.40;88.70;;;;;;5074829;28;20607;-90
2023/11/24 02:18:30;;;;;;;11.23;10.23;;;5.40;88.40;;;;;;5074816;28;20184;-89
2023/11/24 02:20:56;;;;;;;14.85;13.55;;;5.40;88.70;;;;;;5075475;28;20181;-89
2023/11/24 02:23:22;;;;;;;17.75;14.35;;;5.40;89.00;;;;;;5093048;28;20674;-89
2023/11/24 02:25:47;;;;;;;14.67;13.43;;;5.30;88.90;;;;;;5093289;28;20337;-90
2023/11/24 02:28:13;;;;;;;15.23;13.63;;;5.30;88.80;;;;;;5074764;28;20194;-90
2023/11/24 02:30:38;;;;;;;23.53;15.10;;;5.30;88.80;;;;;;5092926;28;20213;-89
2023/11/24 02:33:04;;;;;;;16.90;15.20;;;5.00;88.70;;;;;;5074716;28;20177;-89
2023/11/24 02:35:31;;;;;;;20.40;14.53;;;5.00;88.90;;;;;;5074780;28;20182;-89
2023/11/24 02:37:57;;;;;;;17.23;15.57;;;5.00;88.90;;;;;;5074475;28;20191;-89
2023/11/24 02:40:22;;;;;;;16.40;14.80;;;4.90;88.90;;;;;;5092721;28;20321;-89
2023/11/24 02:42:48;;;;;;;21.73;14.37;;;4.90;88.70;;;;;;5092774;28;20780;-89
2023/11/24 02:45:14;;;;;;;15.07;13.50;;;5.10;88.60;;;;;;5075098;28;20185;-89
2023/11/24 02:47:40;;;;;;;18.20;14.20;;;5.20;88.30;;;;;;5093040;28;20225;-88
2023/11/24 02:50:06;;;;;;;18.83;13.70;;;5.20;88.10;;;;;;5074533;28;20210;-89
2023/11/24 02:52:33;;;;;;;;;;;5.20;88.40;;;;;;5074705;28;20179;-88
2023/11/24 02:54:58;;;;;;;17.43;12.60;;;5.20;88.30;;;;;;5092655;28;20315;-89
2023/11/24 02:57:24;;;;;;;11.03;4.63;;;5.20;88.40;;;;;;5074902;28;20214;-89
2023/11/24 02:59:49;;;;;;;14.27;5.13;;;5.20;88.70;;;;;;5092495;28;20277;-89
2023/11/24 03:02:14;;;;;;;;;;;5.30;88.90;;;;;;5093285;28;20084;-89
2023/11/24 03:04:40;;;;;;;;;;;5.30;89.10;;;;;;5074846;28;19961;-88
2023/11/24 03:07:05;;;;;;;;;;;5.30;89.20;;;;;;5074891;28;20010;-89
2023/11/24 03:09:32;;;;;;;;;;;5.30;89.30;;;;;;5092840;28;20053;-89
2023/11/24 03:11:57;;;;;;;17.43;5.90;;;5.30;89.30;;;;;;5092528;28;20348;-88
2023/11/24 03:14:23;;;;;;;19.13;12.73;;;5.50;88.80;;;;;;5095516;28;20166;-88
2023/11/24 03:16:49;;;;;;;19.17;13.70;;;5.40;88.60;;;;;;5077871;28;20194;-88
2023/11/24 03:19:16;;;;;;;22.27;13.80;;;5.40;88.30;;;;;;5077818;28;20184;-89
2023/11/24 03:21:45;;;;;;;;;;;5.40;88.90;;;;;;5096323;28;20170;-89
2023/11/24 03:24:10;;;;;;;12.00;5.97;;;5.30;89.30;;;;;;5078829;28;20195;-90
2023/11/24 03:26:36;;;;;;;11.77;4.73;;;5.30;89.50;;;;;;5077820;28;20228;-89
2023/11/24 03:29:02;;;;;;;20.37;6.67;;;5.30;89.70;;;;;;5077508;28;20268;-89
2023/11/24 03:31:28;;;;;;;12.23;5.57;;;5.20;89.70;;;;;;5095729;28;20171;-89
2023/11/24 03:33:53;;;;;;;15.50;5.60;;;5.20;89.80;;;;;;5077700;28;20271;-89
2023/11/24 03:36:19;;;;;;;19.57;5.47;;;5.10;89.70;;;;;;5095933;28;20190;-90
2023/11/24 03:38:44;;;;;;;14.67;5.83;;;5.10;89.90;;;;;;5077420;28;20273;-89
2023/11/24 03:41:10;;;;;;;12.97;4.03;;;5.00;89.90;;;;;;5095528;28;20173;-89
2023/11/24 03:43:36;;;;;;;13.17;5.00;;;5.00;90.00;;;;;;5078489;28;20180;-90
2023/11/24 03:46:01;;;;;;;10.67;4.53;;;5.00;90.00;;;;;;5095437;28;20174;-89
2023/11/24 03:48:30;;;;;;;15.70;5.20;;;5.00;90.10;;;;;;5077259;28;20206;-89
2023/11/24 03:50:56;;;;;;;19.20;5.65;;;5.00;90.10;;;;;;5077416;28;20205;-90
2023/11/24 03:53:21;;;;;;;10.47;5.67;;;5.00;90.20;;;;;;5077225;28;20171;-89
2023/11/24 03:55:47;;;;;;;12.20;5.47;;;5.00;90.10;;;;;;5077172;28;20182;-89
2023/11/24 03:58:13;;;;;;;;;;;5.00;90.00;;;;;;5095400;28;20183;-89
2023/11/24 04:00:39;;;;;;;;;;;5.00;90.00;;;;;;5077442;28;19953;-89
2023/11/24 04:03:04;;;;;;;;;;;5.00;90.00;;;;;;5095893;28;19904;-89
2023/11/24 04:05:30;;;;;;;;;;;5.00;90.00;;;;;;5077419;28;20363;-89
2023/11/24 04:07:55;;;;;;;;;;;4.90;89.90;;;;;;5077387;28;19904;-89
2023/11/24 04:10:21;;;;;;;;;;;4.60;89.50;;;;;;5077600;28;19912;-90
2023/11/24 04:12:46;;;;;;;;;;;4.70;90.00;;;;;;5095384;28;19953;-90
2023/11/24 04:15:13;;;;;;;;;;;4.60;89.80;;;;;;5077321;28;20420;-89
2023/11/24 04:17:38;;;;;;;24.20;13.00;;;4.70;89.60;;;;;;5076725;28;20165;-89
2023/11/24 04:20:04;;;;;;;;;;;4.60;89.40;;;;;;5076935;28;20261;-88
2023/11/24 04:22:30;;;;;;;21.43;12.87;;;4.70;89.00;;;;;;5094714;28;19976;-89
2023/11/24 04:24:55;;;;;;;21.50;13.63;;;4.60;88.90;;;;;;5094723;28;20264;-89
2023/11/24 04:27:21;;;;;;;26.23;15.00;;;4.60;88.60;;;;;;5094774;28;20188;-89
2023/11/24 04:29:46;;;;;;;18.97;15.13;;;4.60;88.70;;;;;;5076400;28;20208;-89
2023/11/24 04:32:12;;;;;;;;;;;4.60;88.20;;;;;;5095027;28;20087;-88
2023/11/24 04:34:37;;;;;;;22.47;15.77;;;4.60;87.80;;;;;;5077348;28;19986;-89
2023/11/24 04:37:03;;;;;;;15.07;6.43;;;4.60;87.70;;;;;;5076114;28;20095;-89
2023/11/24 04:39:29;;;;;;;21.37;7.50;;;4.60;87.50;;;;;;5076292;28;20186;-89
2023/11/24 04:41:54;;;;;;;;;;;4.60;87.50;;;;;;5094789;28;20252;-88
2023/11/24 04:44:21;;;;;;;22.03;14.30;;;4.60;87.80;;;;;;5094898;28;19998;-89
2023/11/24 04:46:46;;;;;;;22.10;14.73;;;4.60;87.90;;;;;;5094300;28;20192;-89
2023/11/24 04:49:12;;;;;;;18.10;6.70;;;4.60;88.10;;;;;;5094228;28;20210;-89
2023/11/24 04:51:37;;;;;;;14.97;6.30;;;4.70;87.80;;;;;;5076065;28;20254;-89
2023/11/24 04:54:03;;;;;;;23.87;14.50;;;4.80;87.50;;;;;;5076035;28;20242;-89
2023/11/24 04:56:29;;;;;;;20.70;13.50;;;4.80;87.60;;;;;;5075944;28;20216;-88
2023/11/24 04:58:55;;;;;;;20.17;13.37;;;4.80;88.10;;;;;;5076119;28;20718;-88
2023/11/24 05:01:20;;;;;;;16.87;5.77;;;4.90;88.70;;;;;;5076008;28;20264;-89
2023/11/24 05:03:49;;;;;;;17.27;5.80;;;4.80;89.20;;;;;;5094279;28;20626;-90
2023/11/24 05:06:16;;;;;;;26.53;7.17;;;4.80;89.40;;;;;;5076076;28;20656;-91
2023/11/24 05:08:41;;;;;;;18.60;7.13;;;4.80;89.50;;;;;;5075634;28;20339;-89
2023/11/24 05:11:07;;;;;;;18.23;6.20;;;4.80;89.50;;;;;;5093892;28;20230;-89
2023/11/24 05:13:33;;;;;;;18.90;6.53;;;4.70;89.50;;;;;;5075674;28;20653;-89
2023/11/24 05:15:59;;;;;;;21.10;6.60;;;4.70;89.70;;;;;;5075653;28;20241;-89
2023/11/24 05:18:25;;;;;;;24.17;7.47;;;4.70;89.50;;;;;;5075563;28;20292;-89
2023/11/24 05:20:51;;;;;;;14.63;6.33;;;4.70;88.80;;;;;;5093675;28;20209;-89
2023/11/24 05:23:17;;;;;;;12.23;6.23;;;4.70;88.70;;;;;;5075630;28;20240;-89
2023/11/24 05:25:42;;;;;;;20.27;6.10;;;4.70;88.40;;;;;;5093717;28;20669;-89
2023/11/24 05:28:08;;;;;;;15.23;6.90;;;4.60;88.10;;;;;;5075804;28;20678;-89
2023/11/24 05:30:37;;;;;;;18.60;6.20;;;4.50;87.90;;;;;;5075468;28;20247;-88
2023/11/24 05:33:03;;;;;;;;;;;4.40;88.50;;;;;;5075665;28;20227;-90
2023/11/24 05:35:29;;;;;;;;;;;4.40;88.10;;;;;;5075395;28;19904;-89
2023/11/24 05:37:54;;;;;;;;;;;4.30;88.30;;;;;;5075746;28;20375;-89
2023/11/24 05:40:20;;;;;;;;;;;4.30;88.30;;;;;;5093871;28;19911;-90
2023/11/24 05:42:45;;;;;;;18.63;15.97;;;4.30;88.40;;;;;;5093299;28;20351;-89
2023/11/24 05:45:14;;;;;;;18.40;15.73;;;4.30;88.30;;;;;;5075229;28;20218;-89
2023/11/24 05:47:41;;;;;;;18.03;16.43;;;4.30;88.10;;;;;;5075578;28;20240;-90
2023/11/24 05:50:07;;;;;;;19.20;17.13;;;4.40;87.90;;;;;;5093168;28;20627;-89
2023/11/24 05:52:36;;;;;;;23.73;16.93;;;4.40;87.60;;;;;;5075534;28;20207;-89
2023/11/24 05:55:03;;;;;;;19.67;17.60;;;4.40;87.30;;;;;;5093249;28;20268;-89
2023/11/24 05:57:29;;;;;;;20.27;18.17;;;4.40;87.20;;;;;;5075104;28;20289;-89
2023/11/24 05:59:55;;;;;;;21.93;18.53;;;4.50;87.20;;;;;;5093243;28;20555;-90
2023/11/24 06:02:21;;;;;;;20.00;17.00;;;4.30;87.40;;;;;;5075062;28;20177;-89
2023/11/24 06:04:47;;;;;;;30.50;19.23;;;4.40;87.70;;;;;;5076103;28;20177;-90
2023/11/24 06:07:14;;;;;;;33.90;19.47;;;4.30;88.10;;;;;;5074991;28;20259;-89
2023/11/24 06:09:40;;;;;;;24.30;17.80;;;4.30;88.30;;;;;;5074980;28;20233;-89
2023/11/24 06:12:06;;;;;;;;;;;4.30;88.90;;;;;;5093640;28;20392;-90
2023/11/24 06:14:31;;;;;;;;;;;4.30;89.10;;;;;;5075321;28;19999;-90
2023/11/24 06:16:57;;;;;;;;;;;4.10;89.10;;;;;;5075193;28;19908;-90
2023/11/24 06:19:22;;;;;;;;;;;4.10;89.60;;;;;;5093424;28;20329;-90
2023/11/24 06:21:47;;;;;;;;;;;3.80;89.30;;;;;;5076100;28;19908;-90
2023/11/24 06:24:13;;;;;;;;;;;3.50;89.40;;;;;;5076000;28;19931;-89
2023/11/24 06:26:39;;;;;;;;;;;3.20;90.30;;;;;;5075205;28;19915;-90
2023/11/24 06:29:04;;;;;;;;;;;3.30;90.80;;;;;;5093270;28;20315;-91
2023/11/24 06:31:30;;;;;;;;;;;3.40;91.00;;;;;;5093410;28;20268;-89
2023/11/24 06:33:55;;;;;;;;;;;3.60;91.10;;;;;;5093332;28;19961;-89
2023/11/24 06:36:22;;;;;;;;;;;3.40;91.00;;;;;;5093247;28;19969;-88
2023/11/24 06:38:47;;;;;;;15.63;5.50;;;3.50;91.10;;;;;;5075027;28;19908;-89
2023/11/24 06:41:13;;;;;;;;;;;3.50;91.10;;;;;;5075035;28;20078;-89
2023/11/24 06:43:38;;;;;;;;;;;3.50;91.10;;;;;;5075119;28;19949;-88
2023/11/24 06:46:05;;;;;;;;;;;3.50;91.00;;;;;;5093121;28;20343;-88
2023/11/24 06:48:31;;;;;;;;;;;3.50;90.90;;;;;;5076847;28;19970;-89
2023/11/24 06:50:58;;;;;;;;;;;3.50;90.90;;;;;;5078903;28;20325;-89
2023/11/24 06:53:23;;;;;;;;;;;3.50;90.80;;;;;;5097034;28;19911;-89
2023/11/24 06:55:49;;;;;;;;;;;3.60;90.80;;;;;;5078737;28;19904;-89
2023/11/24 06:58:14;;;;;;;;;;;3.60;90.50;;;;;;5096809;28;19961;-89
2023/11/24 07:00:40;;;;;;;;;;;3.60;90.10;;;;;;5078696;28;19904;-89
2023/11/24 07:03:05;;;;;;;;;;;3.60;89.80;;;;;;5078679;28;19904;-89
2023/11/24 07:05:31;;;;;;;;;;;3.60;89.60;;;;;;5078742;28;20322;-89
2023/11/24 07:07:57;;;;;;;13.57;5.97;;;3.70;89.60;;;;;;5078436;28;19904;-90
2023/11/24 07:10:26;;;;;;;8.77;7.63;;;3.70;89.40;;;;;;5096569;28;20190;-89
2023/11/24 07:12:52;;;;;;;18.37;15.87;;;3.80;87.80;;;;;;5096302;28;20223;-89
2023/11/24 07:15:18;;;;;;;20.20;18.27;;;3.90;87.30;;;;;;5077953;28;20174;-89
2023/11/24 07:17:44;;;;;;;18.63;16.83;;;4.00;86.50;;;;;;5077926;28;20198;-89
2023/11/24 07:20:11;;;;;;;18.00;16.33;;;3.90;86.50;;;;;;5096033;28;20174;-89
2023/11/24 07:22:37;;;;;;;19.23;15.90;;;3.90;86.80;;;;;;5078188;28;20171;-89
2023/11/24 07:25:03;;;;;;;22.00;16.37;;;4.00;86.90;;;;;;5077801;28;20549;-89
2023/11/24 07:27:30;;;;;;;19.07;16.13;;;4.10;86.80;;;;;;5096052;28;20197;-89
2023/11/24 07:29:55;;;;;;;23.63;13.97;;;4.30;86.70;;;;;;5077802;28;20205;-89
2023/11/24 07:32:24;;;;;;;17.70;14.80;;;4.30;87.20;;;;;;5077857;28;20174;-89
2023/11/24 07:34:50;;;;;;;;;;;4.20;87.70;;;;;;5078112;28;20331;-89
2023/11/24 07:37:15;;;;;;;;;;;4.10;88.10;;;;;;5077983;28;19911;-88
2023/11/24 07:39:41;;;;;;;;;;;4.10;88.30;;;;;;5077925;28;20015;-88
2023/11/24 07:42:06;;;;;;;;;;;4.10;88.50;;;;;;5078068;28;19958;-88
2023/11/24 07:44:32;;;;;;;;;;;4.10;88.70;;;;;;5095879;28;19961;-89
2023/11/24 07:46:57;;;;;;;;;;;4.20;88.60;;;;;;5095800;28;19904;-89
2023/11/24 07:49:23;;;;;;;;;;;4.20;88.40;;;;;;5077642;28;19911;-90
2023/11/24 07:51:49;;;;;;;;;;;4.10;88.30;;;;;;5095759;28;19954;-89
2023/11/24 07:54:14;;;;;;;;;;;4.10;87.90;;;;;;5077793;28;19911;-90
2023/11/24 07:56:40;;;;;;;;;;;4.00;87.50;;;;;;5095674;28;19904;-89
2023/11/24 07:59:06;;;;;;;;;;;4.10;87.50;;;;;;5095269;28;19927;-90
2023/11/24 08:01:32;;;;;;;;;;;4.10;87.60;;;;;;5095667;28;20368;-90
2023/11/24 08:03:57;;;;;;;;;;;4.10;87.60;;;;;;5077504;28;19935;-89
2023/11/24 08:06:24;;;;;;;;;;;4.30;87.40;;;;;;5095422;28;20367;-90
2023/11/24 08:08:49;;;;;;;;;;;4.30;87.10;;;;;;5077802;28;20249;-89
2023/11/24 08:11:15;;;;;;;;;;;4.30;87.10;;;;;;5095461;28;19905;-89
2023/11/24 08:13:40;;;;;;;;;;;4.30;87.40;;;;;;5095626;28;19904;-88
2023/11/24 08:16:06;;;;;;;;;;;4.10;88.00;;;;;;5077294;28;19911;-90
2023/11/24 08:18:31;;;;;;;;;;;4.10;88.50;;;;;;5095187;28;19923;-89
2023/11/24 08:21:01;;;;;;;;;;;4.00;88.80;;;;;;5095161;28;19910;-89
2023/11/24 08:23:27;;;;;;;;;;;4.00;88.90;;;;;;5095830;28;20332;-92
2023/11/24 08:25:52;;;;;;;;;;;4.10;88.90;;;;;;5077337;28;19904;-88
2023/11/24 08:28:18;;;;;;;;;;;4.20;88.90;;;;;;5095223;28;20439;-88
2023/11/24 08:30:43;;;;;;;;;;;4.20;88.60;;;;;;5077112;28;19908;-89
2023/11/24 08:33:09;;;;;;;;;;;4.30;88.50;;;;;;5077074;28;19904;-89
2023/11/24 08:35:34;;;;;;;;;;;4.50;88.00;;;;;;5077249;28;19904;-89
2023/11/24 08:37:59;;;;;;;;;;;4.60;87.80;;;;;;5095087;28;19911;-90
2023/11/24 08:40:26;;;;;;;;;;;4.80;87.90;;;;;;5094796;28;19904;-90
2023/11/24 08:42:53;;;;;;;;;;;4.90;87.80;;;;;;5095727;28;19943;-92
2023/11/24 08:45:18;;;;;;;;;;;5.10;87.70;;;;;;5095119;28;20371;-88
2023/11/24 08:47:44;;;;;;;;;;;5.00;87.20;;;;;;5076902;28;19915;-90
2023/11/24 08:50:13;;;;;;;;;;;4.80;87.30;;;;;;5076787;28;19923;-89
2023/11/24 08:52:39;;;;;;;;;;;4.70;87.50;;;;;;5094601;28;20431;-90
2023/11/24 08:55:06;;;;;;;;;;;4.50;87.60;;;;;;5094582;28;19962;-90
2023/11/24 08:57:31;;;;;;;;;;;4.50;87.60;;;;;;5094577;28;19904;-90
2023/11/24 08:59:57;;;;;;;;;;;4.40;87.70;;;;;;5094536;28;19911;-90
2023/11/24 09:02:23;;;;;;;;;;;4.50;87.80;;;;;;5076292;28;19950;-90
2023/11/24 09:04:49;;;;;;;;;;;4.40;88.00;;;;;;5076316;28;19904;-89
2023/11/24 09:07:14;;;;;;;;;;;4.50;88.20;;;;;;5094429;28;19911;-90
2023/11/24 09:09:41;;;;;;;;;;;4.50;88.40;;;;;;5076060;28;19908;-91
2023/11/24 09:12:06;;;;;;;;;;;4.60;88.50;;;;;;5093640;28;19904;-89
2023/11/24 09:14:36;;;;;;;;;;;4.50;88.20;;;;;;5076317;28;20287;-90
2023/11/24 09:17:02;;;;;;;;;;;4.60;88.00;;;;;;5075978;28;19953;-91
2023/11/24 09:19:27;;;;;;;;;;;4.60;88.50;;;;;;5095715;28;19911;-92
2023/11/24 09:21:54;;;;;;;;;;;4.50;88.00;;;;;;5077552;28;19904;-90
2023/11/24 09:24:20;;;;;;;;;;;4.50;88.30;;;;;;5076650;28;19904;-89
2023/11/24 09:26:45;;;;;;;;;;;4.40;88.60;;;;;;5094623;28;19957;-90
2023/11/24 09:29:11;;;;;;;;;;;4.50;88.90;;;;;;5094370;28;20398;-88
2023/11/24 09:31:37;;;;;;;;;;;4.50;88.70;;;;;;5077540;28;19973;-92
2023/11/24 09:34:02;;;;;;;;;;;4.60;88.90;;;;;;5094229;28;20468;-90
2023/11/24 09:36:28;;;;;;;17.90;11.70;;;4.80;88.90;;;;;;5077002;28;19911;-89
2023/11/24 09:38:53;;;;;;;23.53;7.40;;;4.90;88.60;;;;;;5093703;28;20021;-89
2023/11/24 09:41:20;;;;;;;16.80;6.75;;;4.90;88.60;;;;;;5075446;28;20641;-89
2023/11/24 09:43:45;;;;;;;19.60;13.00;;;4.90;87.80;;;;;;5076146;28;19982;-90
2023/11/24 09:46:12;;;;;;;22.90;13.70;;;4.90;87.80;;;;;;5075558;28;20438;-89
2023/11/24 09:48:44;;;;;;;20.00;7.00;;;4.90;87.90;;;;;;5075089;28;20224;-90
2023/11/24 09:51:12;;;;;;;19.00;6.90;;;4.90;88.10;;;;;;5093422;28;20194;-89
2023/11/24 09:53:39;;;;;;;19.33;7.53;;;4.80;88.20;;;;;;5075356;28;20555;-89
2023/11/24 09:56:05;;;;;;;19.90;6.77;;;4.80;88.30;;;;;;5093522;28;20257;-89
2023/11/24 09:58:34;;;;;;;27.23;6.53;;;4.80;88.50;;;;;;5075220;28;20194;-90
2023/11/24 10:01:09;;;;;;;17.90;7.07;;;4.80;88.80;;;;;;5075131;28;20185;-89
2023/11/24 10:03:38;;;;;;;19.67;7.03;;;4.90;88.50;;;;;;5093206;28;20162;-89
2023/11/24 10:06:07;;;;;;;18.00;6.70;;;5.00;88.60;;;;;;5093133;28;20253;-90
2023/11/24 10:08:35;;;;;;;16.40;6.47;;;5.00;88.30;;;;;;5074993;28;20206;-89
2023/11/24 10:11:12;;;;;;;17.03;7.57;;;5.10;87.50;;;;;;5093097;28;20704;-89
2023/11/24 10:13:41;;;;;;;24.03;6.70;;;5.00;87.70;;;;;;5074922;28;20177;-89
2023/11/24 10:16:08;;;;;;;20.97;7.07;;;4.80;88.30;;;;;;5075097;28;20174;-89
2023/11/24 10:18:33;;;;;;;17.37;6.23;;;4.80;88.80;;;;;;5074984;28;20202;-88
2023/11/24 10:21:00;;;;;;;14.23;7.20;;;4.80;88.90;;;;;;5075180;28;20327;-89
2023/11/24 10:23:32;;;;;;;8.80;6.50;;;4.70;88.90;;;;;;5078610;28;20555;-89
2023/11/24 10:25:58;;;;;;;14.03;12.60;;;4.60;88.60;;;;;;5079124;28;20169;-89
2023/11/24 10:28:25;;;;;;;13.27;12.37;;;4.60;88.60;;;;;;5078900;28;20347;-89
2023/11/24 10:30:52;;;;;;;12.23;11.53;;;4.60;88.30;;;;;;5097021;28;20339;-89
2023/11/24 10:33:20;;;;;;;12.57;11.47;;;4.60;88.40;;;;;;5079718;28;20177;-89
2023/11/24 10:35:47;;;;;;;11.83;11.00;;;4.80;88.70;;;;;;5078959;28;20240;-90
2023/11/24 10:38:20;;;;;;;13.10;12.03;;;4.90;88.20;;;;;;5079068;28;20250;-90
2023/11/24 10:40:51;;;;;;;11.87;10.83;;;4.80;87.60;;;;;;5097027;28;20176;-89
2023/11/24 10:43:19;;;;;;;13.83;12.50;;;4.80;87.50;;;;;;5079363;28;20176;-90
2023/11/24 10:45:52;;;;;;;13.63;11.53;;;4.80;87.60;;;;;;5098384;28;20181;-90
2023/11/24 10:48:26;;;;;;;15.73;12.00;;;4.80;88.00;;;;;;5078460;28;20686;-89
2023/11/24 10:51:08;;;;;;;14.13;10.63;;;4.70;88.40;;;;;;5096590;28;20183;-90
2023/11/24 10:53:38;;;;;;;12.93;11.67;;;4.60;88.50;;;;;;5078509;28;20656;-90
2023/11/24 10:56:04;;;;;;;14.80;12.10;;;4.60;88.60;;;;;;5078663;28;20174;-89
2023/11/24 10:58:33;;;;;;;16.33;13.57;;;4.60;88.40;;;;;;5078196;28;20700;-91
2023/11/24 11:00:59;;;;;;;16.60;12.93;;;4.60;88.30;;;;;;5078862;28;20206;-90
2023/11/24 11:03:27;;;;;;;11.70;6.87;;;4.50;87.90;;;;;;5078476;28;20633;-90
2023/11/24 11:05:53;;;;;;;;;;;4.50;87.90;;;;;;5078729;28;20159;-88
2023/11/24 11:08:31;;;;;;;15.17;13.80;;;4.50;87.90;;;;;;5096519;28;20250;-89
2023/11/24 11:11:12;;;;;;;15.00;13.53;;;4.60;87.60;;;;;;5096273;28;20670;-90
2023/11/24 11:13:41;;;;;;;15.83;13.93;;;4.90;87.20;;;;;;5096556;28;20658;-89
2023/11/24 11:16:10;;;;;;;12.50;8.40;;;4.80;86.70;;;;;;5078162;28;20175;-90
2023/11/24 11:18:36;;;;;;;8.27;7.73;;;4.60;86.50;;;;;;5077971;28;20195;-89
2023/11/24 11:21:30;;;;;;;8.93;7.40;;;4.60;86.70;;;;;;5078032;28;20566;-89
2023/11/24 11:23:57;;;;;;;11.43;7.93;;;4.50;87.00;;;;;;5096394;28;20163;-89
2023/11/24 11:26:49;;;;;;;16.10;8.43;;;4.40;87.10;;;;;;5077785;28;20762;-88
2023/11/24 11:29:26;;;;;;;12.60;8.20;;;4.40;87.20;;;;;;5088925;28;20202;-91
2023/11/24 11:31:53;;;;;;;11.50;8.73;;;4.60;87.30;;;;;;5098317;28;20154;-90
2023/11/24 11:34:25;;;;;;;9.57;7.80;;;4.50;87.30;;;;;;5095198;28;20167;-89
2023/11/24 11:37:06;;;;;;;10.07;8.33;;;4.50;87.50;;;;;;5078829;28;20254;-90
2023/11/24 11:39:59;;;;;;;13.20;8.83;;;4.40;87.40;;;;;;5077678;28;20265;-88
2023/11/24 11:42:31;;;;;;;12.83;8.20;;;4.30;87.30;;;;;;5097386;28;20252;-89
2023/11/24 11:45:09;;;;;;;18.17;9.83;;;4.40;87.70;;;;;;5095863;28;20153;-90
2023/11/24 11:47:47;;;;;;;14.70;7.30;;;4.40;87.80;;;;;;5077440;28;20220;-90
2023/11/24 11:50:21;;;;;;;14.63;12.80;;;4.40;88.20;;;;;;5096540;28;20304;-89
2023/11/24 11:52:49;;;;;;;18.20;11.30;;;4.50;88.50;;;;;;5095745;28;20601;-90
2023/11/24 11:55:20;;;;;;;;;;;4.50;88.70;;;;;;5077806;28;20635;-90
2023/11/24 11:57:53;;;;;;;;;;;4.60;88.70;;;;;;5077657;28;20007;-90
2023/11/24 12:00:25;;;;;;;17.17;11.50;;;4.60;88.80;;;;;;5077294;28;20027;-90
2023/11/24 12:02:50;;;;;;;16.07;11.70;;;4.60;88.90;;;;;;5077152;28;20261;-90
2023/11/24 12:05:18;;;;;;;13.37;12.00;;;4.50;88.70;;;;;;5077192;28;20282;-90
2023/11/24 12:07:48;;;;;;;16.83;11.80;;;4.40;88.90;;;;;;5096252;28;20186;-89
2023/11/24 12:10:14;;;;;;;19.53;12.50;;;4.40;89.10;;;;;;5077488;28;20662;-90
2023/11/24 12:12:45;;;;;;;16.87;11.80;;;4.50;89.00;;;;;;5077118;28;20177;-90
2023/11/24 12:15:13;;;;;;;21.77;11.80;;;4.50;88.80;;;;;;5077096;28;20592;-89
2023/11/24 12:17:40;;;;;;;20.67;11.00;;;4.60;88.80;;;;;;5076858;28;20273;-90
2023/11/24 12:20:10;;;;;;;17.67;10.77;;;4.70;88.40;;;;;;5077260;28;20174;-91
2023/11/24 12:22:37;;;;;;;20.05;12.20;;;4.50;88.00;;;;;;5095398;28;20667;-90
2023/11/24 12:25:04;;;;;;;20.07;7.57;;;4.00;88.10;;;;;;5077296;28;20210;-90
2023/11/24 12:27:33;;;;;;;12.40;6.80;;;4.00;88.60;;;;;;5095217;28;20224;-91
2023/11/24 12:30:03;;;;;;;;;;;4.00;88.70;;;;;;5077546;28;20661;-90
2023/11/24 12:32:31;;;;;;;;;;;4.00;88.80;;;;;;5077708;28;19976;-91
2023/11/24 12:34:57;;;;;;;;;;;4.00;88.80;;;;;;5077506;28;19962;-90
2023/11/24 12:37:23;;;;;;;15.50;6.07;;;4.10;89.00;;;;;;5076744;28;19904;-90
2023/11/24 12:39:48;;;;;;;10.00;4.90;;;4.20;89.10;;;;;;5077242;28;20562;-91
2023/11/24 12:42:40;;;;;;;23.20;9.07;;;4.10;89.50;;;;;;5076879;28;20175;-90
2023/11/24 12:45:08;;;;;;;14.10;8.47;;;4.00;89.90;;;;;;5076193;28;20184;-91
2023/11/24 12:47:34;;;;;;;12.50;8.27;;;3.90;89.70;;;;;;5076497;28;20676;-90
2023/11/24 12:50:14;;;;;;;12.17;5.40;;;3.90;89.60;;;;;;5076510;28;20205;-90
2023/11/24 12:52:43;;;;;;;13.63;6.23;;;3.90;89.30;;;;;;5076195;28;20221;-90
2023/11/24 12:55:10;;;;;;;7.83;5.73;;;4.00;88.80;;;;;;5076383;28;20201;-91
2023/11/24 12:57:37;;;;;;;13.53;7.10;;;4.00;88.50;;;;;;5077185;28;20199;-90
2023/11/24 13:00:13;;;;;;;10.20;5.40;;;4.10;88.10;;;;;;5094601;28;20247;-91
2023/11/24 13:02:39;;;;;;;;;;;4.30;88.20;;;;;;5077062;28;20745;-90
2023/11/24 13:05:06;;;;;;;;;;;4.40;88.00;;;;;;5094783;28;19911;-90
2023/11/24 13:07:32;;;;;;;11.37;5.43;;;4.50;88.10;;;;;;5094175;28;20302;-91
2023/11/24 13:09:57;;;;;;;14.43;6.23;;;4.50;87.90;;;;;;5075958;28;20741;-90
2023/11/24 13:12:22;;;;;;;12.17;5.93;;;4.50;87.30;;;;;;5076081;28;20184;-90
2023/11/24 13:14:48;;;;;;;10.10;6.33;;;4.60;87.10;;;;;;5094225;28;20243;-90